createdAt,value
2023-11-27T00:01:05.802Z,10.00
2023-11-27T00:03:33.571Z,9.63
2023-11-27T00:06:01.308Z,9.32
2023-11-27T00:08:30.051Z,9.43
2023-11-27T00:11:00.153Z,9.60
2023-11-27T00:13:29.147Z,0.57
2023-11-27T00:15:56.802Z,9.13
2023-11-27T00:18:24.541Z,0.75
2023-11-27T00:20:53.181Z,9.70
2023-11-27T00:23:25.419Z,9.82
2023-11-27T00:25:53.198Z,10.30
2023-11-27T00:28:20.846Z,9.75
2023-11-27T00:30:53.245Z,10.20
2023-11-27T00:33:21.743Z,9.25
2023-11-27T00:35:49.988Z,8.95
2023-11-27T00:38:17.843Z,9.73
2023-11-27T00:40:49.038Z,9.52
2023-11-27T00:43:17.355Z,9.00
2023-11-27T00:45:45.204Z,9.43
2023-11-27T00:48:13.583Z,10.05
2023-11-27T00:50:41.429Z,9.48
2023-11-27T00:53:09.083Z,11.98
2023-11-27T00:55:37.123Z,13.02
2023-11-27T00:58:04.838Z,0.90
2023-11-27T01:00:32.566Z,13.30
2023-11-27T01:03:00.323Z,13.07
2023-11-27T01:05:28.503Z,13.38
2023-11-27T01:07:56.260Z,13.50
2023-11-27T01:10:26.609Z,14.18
2023-11-27T01:12:55.205Z,1.40
2023-11-27T01:15:23.063Z,14.40
2023-11-27T01:17:50.955Z,14.60
2023-11-27T01:20:21.027Z,14.07
2023-11-27T01:22:48.741Z,1.42
2023-11-27T01:25:20.093Z,14.27
2023-11-27T01:27:48.649Z,14.52
2023-11-27T01:30:20.035Z,13.77
2023-11-27T01:32:47.822Z,13.43
2023-11-27T01:35:15.584Z,13.98
2023-11-27T01:37:43.296Z,13.75
2023-11-27T01:40:11.638Z,13.70
2023-11-27T01:42:39.525Z,13.95
2023-11-27T01:45:08.203Z,14.00
2023-11-27T01:47:37.067Z,13.13
2023-11-27T01:50:07.209Z,13.43
2023-11-27T01:52:36.528Z,12.38
2023-11-27T01:55:04.714Z,12.45
2023-11-27T01:57:32.678Z,11.82
2023-11-27T02:00:03.117Z,11.88
2023-11-27T02:02:48.619Z,0.85
2023-11-27T02:05:19.807Z,11.73
2023-11-27T02:07:47.599Z,11.30
2023-11-27T02:10:18.899Z,11.70
2023-11-27T02:12:46.590Z,12.23
2023-11-27T02:15:14.799Z,11.60
2023-11-27T02:17:42.479Z,11.00
2023-11-27T02:20:12.281Z,10.93
2023-11-27T02:22:39.915Z,12.10
2023-11-27T02:25:08.423Z,0.77
2023-11-27T02:27:37.476Z,11.25
2023-11-27T02:30:05.771Z,10.52
2023-11-27T02:32:33.998Z,10.18
2023-11-27T02:35:01.724Z,9.13
2023-11-27T02:37:33.542Z,8.90
2023-11-27T02:40:02.291Z,0.70
2023-11-27T02:42:30.080Z,8.32
2023-11-27T02:44:58.185Z,7.90
2023-11-27T02:47:27.936Z,7.65
2023-11-27T02:49:55.726Z,7.55
2023-11-27T02:52:23.411Z,1.20
2023-11-27T02:54:52.386Z,1.05
2023-11-27T02:57:20.661Z,7.07
2023-11-27T02:59:48.315Z,7.13
2023-11-27T03:02:16.182Z,7.30
2023-11-27T03:04:46.383Z,7.53
2023-11-27T03:07:14.388Z,7.15
2023-11-27T03:09:43.943Z,6.95
2023-11-27T03:12:12.251Z,0.85
2023-11-27T03:14:39.987Z,6.40
2023-11-27T03:17:07.688Z,6.45
2023-11-27T03:19:47.600Z,7.00
2023-11-27T03:22:21.921Z,1.58
2023-11-27T03:24:49.712Z,6.43
2023-11-27T03:27:17.434Z,6.70
2023-11-27T03:29:45.157Z,6.93
2023-11-27T03:32:12.872Z,6.43
2023-11-27T03:34:40.677Z,6.43
2023-11-27T03:37:11.406Z,6.15
2023-11-27T03:39:39.183Z,6.68
2023-11-27T03:42:07.192Z,6.68
2023-11-27T03:44:34.819Z,7.10
2023-11-27T03:47:02.553Z,6.70
2023-11-27T03:49:30.210Z,6.18
2023-11-27T03:51:57.984Z,9.10
2023-11-27T03:54:25.921Z,8.50
2023-11-27T03:56:53.608Z,0.57
2023-11-27T03:59:22.034Z,8.25
2023-11-27T04:01:49.882Z,0.77
2023-11-27T04:04:17.985Z,7.55
2023-11-27T04:06:48.686Z,1.10
2023-11-27T04:09:20.122Z,6.68
2023-11-27T04:11:49.912Z,6.53
2023-11-27T04:14:17.763Z,6.10
2023-11-27T04:16:45.566Z,5.95
2023-11-27T04:19:13.539Z,6.78
2023-11-27T04:21:41.450Z,0.45
2023-11-27T04:24:09.224Z,5.70
2023-11-27T04:26:37.044Z,5.80
2023-11-27T04:29:06.937Z,5.93
2023-11-27T04:31:34.918Z,5.82
2023-11-27T04:34:02.865Z,5.35
2023-11-27T04:36:30.525Z,6.22
2023-11-27T04:38:58.287Z,6.30
2023-11-27T04:41:25.971Z,0.60
2023-11-27T04:43:53.629Z,5.32
2023-11-27T04:46:21.468Z,5.88
2023-11-27T04:48:49.502Z,5.78
2023-11-27T04:51:17.370Z,4.60
2023-11-27T04:53:45.113Z,4.95
2023-11-27T04:56:12.911Z,4.68
2023-11-27T04:58:40.607Z,5.00
2023-11-27T05:01:08.362Z,4.80
2023-11-27T05:03:36.252Z,4.60
2023-11-27T05:06:05.003Z,5.00
2023-11-27T05:08:32.719Z,5.05
2023-11-27T05:11:00.427Z,4.47
2023-11-27T05:13:30.535Z,4.40
2023-11-27T05:15:58.217Z,4.32
2023-11-27T05:18:25.878Z,3.90
2023-11-27T05:20:53.760Z,4.22
2023-11-27T05:23:21.376Z,4.20
2023-11-27T05:25:52.149Z,3.70
2023-11-27T05:28:19.809Z,4.40
2023-11-27T05:30:49.937Z,3.90
2023-11-27T05:33:21.050Z,4.00
2023-11-27T05:35:48.769Z,3.80
2023-11-27T05:38:16.485Z,4.07
2023-11-27T06:25:19.297Z,4.95
2023-11-27T06:27:49.963Z,4.70
2023-11-27T06:30:22.697Z,4.85
2023-11-27T06:32:50.390Z,5.20
2023-11-27T06:35:18.526Z,4.80
2023-11-27T06:37:46.221Z,4.50
2023-11-27T06:40:18.311Z,5.18
2023-11-27T06:42:48.380Z,4.90
2023-11-27T06:45:18.779Z,4.72
2023-11-27T06:47:46.474Z,5.88
2023-11-27T06:50:14.216Z,5.07
2023-11-27T06:52:41.786Z,6.38
2023-11-27T06:55:15.190Z,5.43
2023-11-27T06:57:42.871Z,5.30
2023-11-27T07:00:12.207Z,5.28
2023-11-27T07:02:40.001Z,5.13
2023-11-27T07:05:08.158Z,5.38
2023-11-27T07:07:35.935Z,6.30
2023-11-27T07:10:30.448Z,5.82
2023-11-27T07:12:58.222Z,6.25
2023-11-27T07:15:51.100Z,6.40
2023-11-27T07:18:20.743Z,6.00
2023-11-27T07:20:50.244Z,5.78
2023-11-27T07:23:18.006Z,6.10
2023-11-27T07:26:16.629Z,7.05
2023-11-27T07:29:18.511Z,9.13
2023-11-27T07:31:46.288Z,7.90
2023-11-27T07:34:15.307Z,9.70
2023-11-27T07:36:42.947Z,9.73
2023-11-27T07:39:12.035Z,8.80
2023-11-27T07:41:40.260Z,9.00
2023-11-27T07:44:16.575Z,8.40
2023-11-27T07:46:44.309Z,9.00
2023-11-27T07:49:12.097Z,9.00
2023-11-27T07:51:39.670Z,8.50
2023-11-27T07:54:07.411Z,9.07
2023-11-27T07:56:35.016Z,8.20
2023-11-27T07:59:02.597Z,9.00
2023-11-27T08:01:30.246Z,8.52
2023-11-27T08:03:59.133Z,9.73
2023-11-27T08:06:27.082Z,8.77
2023-11-27T08:08:55.488Z,8.45
2023-11-27T08:11:34.236Z,7.85
2023-11-27T08:14:02.322Z,6.75
2023-11-27T08:16:30.367Z,7.68
2023-11-27T08:18:58.092Z,7.68
2023-11-27T08:21:26.353Z,7.72
2023-11-27T08:23:55.435Z,8.20
2023-11-27T08:26:24.022Z,8.50
2023-11-27T08:28:51.552Z,7.93
2023-11-27T08:31:29.471Z,10.00
2023-11-27T08:33:57.193Z,8.35
2023-11-27T08:36:29.070Z,8.05
2023-11-27T08:39:32.082Z,8.73
2023-11-27T08:42:00.278Z,7.90
2023-11-27T08:44:28.151Z,7.60
2023-11-27T08:47:04.971Z,7.25
2023-11-27T08:49:32.828Z,7.03
2023-11-27T08:52:01.021Z,6.00
2023-11-27T08:54:33.996Z,6.47
2023-11-27T09:06:36.905Z,7.00
2023-11-27T10:38:12.765Z,8.18
2023-11-27T10:41:09.755Z,8.52
2023-11-27T11:41:08.929Z,10.27
2023-11-27T11:43:53.373Z,9.85
2023-11-27T11:51:01.636Z,7.30
2023-11-27T11:54:14.284Z,7.20
2023-11-27T11:56:48.952Z,6.55
2023-11-27T12:00:36.314Z,8.10
2023-11-27T12:03:06.868Z,5.13
2023-11-27T12:05:38.687Z,6.80
2023-11-27T12:08:06.800Z,6.70
2023-11-27T12:10:42.106Z,6.50
2023-11-27T12:13:16.414Z,9.02
2023-11-27T12:16:24.524Z,10.88
2023-11-27T12:18:52.820Z,11.57
2023-11-27T12:21:53.943Z,10.13
2023-11-27T12:30:59.620Z,9.80
2023-11-27T12:32:04.603Z,9.57
2023-11-27T12:32:11.869Z,9.20
2023-11-27T12:48:36.602Z,10.40
2023-11-27T13:07:20.936Z,7.80
2023-11-27T13:09:48.723Z,9.18
2023-11-27T13:12:27.067Z,11.15
2023-11-27T13:18:48.025Z,8.40
2023-11-27T13:21:24.795Z,10.50
2023-11-27T13:21:51.927Z,8.82
2023-11-27T13:23:55.673Z,8.77
2023-11-27T13:26:30.034Z,9.30
2023-11-27T13:29:01.638Z,11.23
2023-11-27T13:31:34.417Z,9.40
2023-11-27T13:34:33.657Z,9.10
2023-11-27T13:37:42.752Z,9.18
2023-11-27T13:40:12.859Z,9.10
2023-11-27T13:43:24.070Z,8.68
2023-11-27T13:49:31.879Z,9.52
2023-11-27T13:52:13.290Z,10.73
2023-11-27T13:54:59.827Z,9.70
2023-11-27T14:07:53.228Z,10.88
2023-11-27T14:14:45.474Z,13.93
2023-11-27T14:14:51.764Z,12.60
2023-11-27T14:18:23.039Z,12.80
2023-11-27T14:21:44.754Z,13.75
2023-11-27T14:25:25.052Z,13.73
2023-11-27T14:28:32.126Z,13.48
2023-11-27T14:31:03.069Z,14.15
2023-11-27T14:33:32.129Z,13.50
2023-11-27T14:35:59.891Z,13.48
2023-11-27T14:38:28.571Z,12.15
2023-11-27T14:40:58.632Z,13.82
2023-11-27T14:43:26.971Z,12.48
2023-11-27T14:46:00.220Z,14.20
2023-11-27T14:48:33.634Z,16.88
2023-11-27T14:51:02.371Z,15.57
2023-11-27T15:06:21.578Z,12.23
2023-11-27T15:08:55.689Z,12.77
2023-11-27T17:44:06.878Z,12.27
2023-11-27T17:47:22.313Z,14.25
2023-11-27T22:31:29.227Z,18.55
2023-11-27T23:15:42.214Z,22.10
2023-11-27T23:18:38.283Z,21.83
2023-11-27T23:21:06.316Z,22.20
2023-11-27T23:23:41.885Z,22.35
2023-11-27T23:26:09.745Z,23.05
2023-11-27T23:28:39.889Z,22.27
2023-11-27T23:31:12.976Z,22.20
2023-11-27T23:33:43.918Z,21.48
2023-11-27T23:36:14.007Z,20.35
2023-11-27T23:38:42.060Z,23.58
2023-11-27T23:41:16.402Z,22.90
2023-11-27T23:43:51.310Z,20.48
2023-11-27T23:46:21.622Z,20.77
2023-11-27T23:49:00.700Z,20.48
2023-11-27T23:51:31.631Z,21.17
2023-11-27T23:54:03.881Z,20.27
2023-11-27T23:56:37.886Z,19.58
2023-11-27T23:59:23.190Z,20.10
